createdAt,value
2023-02-15T00:02:34.289Z,21.93
2023-02-15T00:05:59.204Z,26.07
2023-02-15T00:09:23.252Z,22.20
2023-02-15T00:12:49.302Z,22.17
2023-02-15T00:16:15.295Z,21.30
2023-02-15T00:19:39.260Z,27.10
2023-02-15T00:23:05.229Z,22.53
2023-02-15T00:26:29.502Z,23.03
2023-02-15T00:29:53.249Z,25.13
2023-02-15T00:33:18.388Z,22.83
2023-02-15T00:36:42.086Z,20.77
2023-02-15T00:40:09.051Z,20.67
2023-02-15T00:43:34.848Z,20.90
2023-02-15T00:46:58.708Z,22.37
2023-02-15T00:50:24.566Z,20.57
2023-02-15T00:53:49.763Z,23.00
2023-02-15T00:57:14.251Z,17.17
2023-02-15T01:00:38.595Z,22.50
2023-02-15T01:04:04.297Z,19.53
2023-02-15T01:07:29.549Z,25.70
2023-02-15T01:10:53.184Z,21.33
2023-02-15T01:14:17.152Z,24.17
2023-02-15T01:17:41.161Z,21.87
2023-02-15T01:21:11.899Z,19.53
2023-02-15T01:24:39.927Z,22.60
2023-02-15T01:28:03.943Z,22.03
2023-02-15T01:31:28.295Z,20.80
2023-02-15T01:34:54.312Z,19.30
2023-02-15T01:38:18.186Z,18.93
2023-02-15T01:41:43.545Z,20.70
2023-02-15T01:45:20.280Z,31.13
2023-02-15T01:48:48.692Z,21.90
2023-02-15T01:52:15.579Z,22.67
2023-02-15T01:55:44.780Z,19.73
2023-02-15T01:59:13.793Z,18.60
2023-02-15T02:02:40.461Z,22.27
2023-02-15T02:06:04.227Z,21.97
2023-02-15T02:09:28.944Z,20.50
2023-02-15T02:12:57.316Z,18.97
2023-02-15T02:16:26.830Z,19.80
2023-02-15T02:20:21.912Z,19.70
2023-02-15T02:24:08.699Z,21.90
2023-02-15T02:27:40.861Z,20.83
2023-02-15T02:31:42.446Z,22.53
2023-02-15T02:35:14.570Z,20.03
2023-02-15T02:38:52.317Z,21.70
2023-02-15T02:42:27.337Z,21.90
2023-02-15T02:45:58.248Z,22.80
2023-02-15T02:49:34.743Z,23.37
2023-02-15T02:53:01.354Z,24.43
2023-02-15T02:56:32.000Z,22.87
2023-02-15T02:59:59.945Z,20.67
2023-02-15T03:03:29.378Z,21.97
2023-02-15T03:06:57.416Z,20.30
2023-02-15T03:10:25.644Z,23.07
2023-02-15T03:13:51.233Z,19.93
2023-02-15T03:17:20.593Z,21.53
2023-02-15T03:20:49.182Z,19.70
2023-02-15T03:24:17.060Z,20.40
2023-02-15T03:27:47.073Z,22.63
2023-02-15T03:31:13.915Z,21.83
2023-02-15T03:34:38.482Z,23.63
2023-02-15T03:38:05.462Z,21.10
2023-02-15T03:41:34.169Z,21.67
2023-02-15T03:45:01.967Z,25.43
2023-02-15T03:48:30.804Z,26.40
2023-02-15T03:51:58.760Z,22.90
2023-02-15T03:55:22.287Z,20.03
2023-02-15T03:59:03.174Z,25.73
2023-02-15T04:02:33.223Z,26.20
2023-02-15T04:05:59.589Z,27.00
2023-02-15T04:09:41.578Z,28.90
2023-02-15T04:13:05.164Z,25.93
2023-02-15T04:16:32.182Z,26.43
2023-02-15T04:20:15.557Z,22.10
2023-02-15T04:23:56.584Z,23.77
2023-02-15T04:27:23.980Z,25.27
2023-02-15T04:30:48.839Z,25.30
2023-02-15T04:34:13.386Z,24.33
2023-02-15T04:37:40.392Z,24.00
2023-02-15T04:41:04.393Z,21.40
2023-02-15T04:44:27.933Z,26.17
2023-02-15T04:47:54.950Z,25.50
2023-02-15T04:51:19.412Z,25.30
2023-02-15T04:54:44.939Z,20.90
2023-02-15T04:58:11.951Z,30.23
2023-02-15T05:01:35.660Z,25.23
2023-02-15T05:05:00.383Z,24.67
2023-02-15T05:08:24.427Z,21.63
2023-02-15T05:11:49.874Z,23.63
2023-02-15T05:15:14.418Z,22.73
2023-02-15T05:18:38.474Z,24.17
2023-02-15T05:22:02.451Z,27.70
2023-02-15T05:25:46.036Z,24.07
2023-02-15T05:29:11.792Z,26.00
2023-02-15T05:32:35.515Z,25.33
2023-02-15T05:36:00.808Z,20.97
2023-02-15T05:39:26.460Z,22.10
2023-02-15T05:42:50.443Z,24.40
2023-02-15T05:46:15.854Z,24.97
2023-02-15T05:49:40.661Z,25.70
2023-02-15T05:53:04.524Z,26.67
2023-02-15T05:56:28.794Z,24.77
2023-02-15T05:59:52.492Z,25.03
2023-02-15T06:03:24.017Z,26.07
2023-02-15T06:06:47.688Z,26.30
2023-02-15T06:10:11.757Z,30.23
2023-02-15T06:13:41.165Z,23.00
2023-02-15T06:17:04.739Z,23.53
2023-02-15T06:20:29.909Z,24.80
2023-02-15T06:23:55.678Z,27.07
2023-02-15T06:27:19.505Z,26.57
2023-02-15T06:30:43.560Z,27.47
2023-02-15T06:34:07.678Z,26.07
2023-02-15T06:37:35.489Z,26.27
2023-02-15T06:40:59.564Z,22.53
2023-02-15T06:44:23.513Z,21.47
2023-02-15T06:47:47.490Z,27.80
2023-02-15T06:51:14.228Z,21.53
2023-02-15T06:54:39.953Z,22.40
2023-02-15T06:58:03.646Z,21.43
2023-02-15T07:01:27.258Z,27.47
2023-02-15T07:04:52.402Z,24.67
2023-02-15T07:08:16.630Z,25.53
2023-02-15T07:11:59.766Z,22.90
2023-02-15T07:15:24.002Z,21.80
2023-02-15T07:18:47.566Z,25.37
2023-02-15T07:22:11.543Z,28.67
2023-02-15T07:25:35.127Z,23.80
2023-02-15T07:29:00.109Z,22.23
2023-02-15T07:32:23.811Z,26.97
2023-02-15T07:35:51.138Z,23.43
2023-02-15T07:39:14.889Z,27.73
2023-02-15T07:42:38.405Z,26.13
2023-02-15T07:46:05.205Z,24.80
2023-02-15T07:49:28.932Z,24.03
2023-02-15T07:52:52.727Z,24.40
2023-02-15T07:56:16.935Z,23.27
2023-02-15T07:59:40.444Z,23.73
2023-02-15T08:03:17.812Z,23.23
2023-02-15T08:06:41.456Z,20.80
2023-02-15T08:10:05.647Z,24.47
2023-02-15T08:13:29.155Z,18.00
2023-02-15T08:16:54.173Z,20.90
2023-02-15T08:20:19.441Z,18.27
2023-02-15T08:23:43.010Z,21.23
2023-02-15T08:27:07.397Z,21.33
2023-02-15T08:30:31.118Z,17.93
2023-02-15T08:33:56.546Z,18.50
2023-02-15T08:37:21.512Z,17.43
2023-02-15T08:40:45.110Z,18.50
2023-02-15T08:44:10.473Z,19.77
2023-02-15T08:47:34.171Z,21.23
2023-02-15T08:50:57.837Z,17.70
2023-02-15T08:54:23.469Z,18.20
2023-02-15T08:57:47.859Z,17.80
2023-02-15T09:01:13.006Z,19.00
2023-02-15T09:04:36.621Z,17.83
2023-02-15T09:08:00.162Z,18.27
2023-02-15T09:11:26.599Z,19.67
2023-02-15T09:14:50.239Z,21.77
2023-02-15T09:18:17.880Z,20.33
2023-02-15T09:21:41.452Z,19.00
2023-02-15T09:25:05.294Z,17.93
2023-02-15T09:28:30.233Z,17.77
2023-02-15T09:31:54.552Z,18.87
2023-02-15T09:35:18.433Z,18.63
2023-02-15T09:38:43.379Z,18.80
2023-02-15T09:42:44.061Z,17.63
2023-02-15T09:46:29.808Z,19.47
2023-02-15T09:50:03.042Z,18.03
2023-02-15T09:53:54.975Z,17.87
2023-02-15T09:57:28.282Z,19.00
2023-02-15T10:01:01.197Z,18.03
2023-02-15T10:04:45.411Z,17.20
2023-02-15T10:08:33.312Z,16.27
2023-02-15T10:12:13.159Z,17.27
2023-02-15T10:15:54.373Z,19.90
2023-02-15T10:19:27.771Z,19.10
2023-02-15T10:23:07.600Z,17.27
2023-02-15T10:26:39.141Z,17.20
2023-02-15T10:30:11.586Z,16.53
2023-02-15T10:33:41.180Z,17.13
2023-02-15T10:37:38.568Z,17.00
2023-02-15T10:41:18.337Z,17.20
2023-02-15T10:45:01.005Z,22.63
2023-02-15T10:48:39.439Z,17.90
2023-02-15T10:52:15.076Z,18.63
2023-02-15T10:55:51.647Z,18.30
2023-02-15T10:59:33.158Z,18.43
2023-02-15T11:03:12.997Z,23.40
2023-02-15T11:06:38.040Z,17.53
2023-02-15T11:10:09.778Z,16.50
2023-02-15T11:13:38.757Z,16.67
2023-02-15T11:17:07.857Z,19.07
2023-02-15T11:20:37.868Z,19.30
2023-02-15T11:24:02.171Z,19.13
2023-02-15T11:27:30.210Z,19.70
2023-02-15T11:30:58.365Z,18.67
2023-02-15T11:34:29.703Z,18.00
2023-02-15T11:37:59.171Z,18.57
2023-02-15T11:41:26.937Z,20.77
2023-02-15T11:45:00.981Z,20.93
2023-02-15T11:48:25.527Z,21.70
2023-02-15T11:51:51.531Z,18.33
2023-02-15T11:55:19.997Z,27.80
2023-02-15T11:58:47.500Z,21.73
2023-02-15T12:02:20.226Z,21.57
2023-02-15T12:05:49.654Z,22.87
2023-02-15T12:09:23.742Z,20.27
2023-02-15T12:12:47.378Z,19.63
2023-02-15T12:16:14.480Z,17.80
2023-02-15T12:19:41.567Z,18.23
2023-02-15T12:23:08.132Z,20.10
2023-02-15T12:26:35.930Z,16.83
2023-02-15T12:30:04.190Z,18.40
2023-02-15T12:33:32.198Z,18.57
2023-02-15T12:36:59.838Z,23.47
2023-02-15T12:40:31.267Z,19.13
2023-02-15T12:44:14.315Z,19.27
2023-02-15T12:47:38.153Z,20.63
2023-02-15T12:51:11.005Z,21.57
2023-02-15T12:54:41.000Z,18.90
2023-02-15T12:58:09.374Z,21.73
2023-02-15T13:01:36.175Z,19.80
2023-02-15T13:05:09.808Z,18.63
2023-02-15T13:08:37.746Z,21.10
2023-02-15T13:12:13.437Z,16.20
2023-02-15T13:15:40.774Z,20.20
2023-02-15T13:19:09.432Z,20.57
2023-02-15T13:22:40.209Z,17.63
2023-02-15T13:26:10.411Z,20.10
2023-02-15T13:29:38.032Z,25.43
2023-02-15T13:33:05.246Z,20.90
2023-02-15T13:36:40.392Z,21.63
2023-02-15T13:40:09.904Z,21.30
2023-02-15T13:43:48.984Z,19.10
2023-02-15T13:47:22.080Z,19.10
2023-02-15T13:51:06.578Z,20.87
2023-02-15T13:54:46.761Z,20.27
2023-02-15T13:58:32.828Z,19.90
2023-02-15T14:02:00.349Z,20.50
2023-02-15T14:05:32.254Z,20.00
2023-02-15T14:09:07.218Z,19.90
2023-02-15T14:12:54.403Z,22.63
2023-02-15T14:16:28.583Z,22.30
2023-02-15T14:19:56.337Z,26.27
2023-02-15T14:23:32.059Z,20.80
2023-02-15T14:27:04.553Z,22.63
2023-02-15T14:30:33.695Z,18.17
2023-02-15T14:33:58.862Z,25.70
2023-02-15T14:37:34.068Z,20.57
2023-02-15T14:41:08.116Z,21.47
2023-02-15T14:44:39.434Z,21.13
2023-02-15T14:48:14.329Z,19.40
2023-02-15T14:51:59.676Z,18.73
2023-02-15T14:55:37.342Z,25.07
2023-02-15T14:59:16.138Z,23.90
2023-02-15T15:02:49.550Z,20.13
2023-02-15T15:06:27.510Z,23.80
2023-02-15T15:10:01.652Z,19.90
2023-02-15T15:13:40.431Z,22.40
2023-02-15T15:17:05.694Z,23.17
2023-02-15T15:20:51.477Z,24.60
2023-02-15T15:24:48.401Z,19.10
2023-02-15T15:28:32.029Z,27.80
2023-02-15T15:32:01.333Z,18.80
2023-02-15T15:35:31.466Z,19.87
2023-02-15T15:39:08.056Z,20.33
2023-02-15T15:42:45.622Z,28.20
2023-02-15T15:46:26.361Z,18.43
2023-02-15T15:49:51.695Z,19.40
2023-02-15T15:53:21.468Z,18.93
2023-02-15T15:56:49.088Z,20.20
2023-02-15T16:00:35.983Z,19.53
2023-02-15T16:04:01.159Z,20.07
2023-02-15T16:07:29.134Z,18.53
2023-02-15T16:10:52.692Z,23.90
2023-02-15T16:14:18.919Z,19.20
2023-02-15T16:17:44.808Z,26.50
2023-02-15T16:21:08.346Z,18.23
2023-02-15T16:25:10.396Z,18.87
2023-02-15T16:28:34.211Z,21.13
2023-02-15T16:32:06.769Z,21.67
2023-02-15T16:35:30.509Z,21.83
2023-02-15T16:39:18.601Z,19.90
2023-02-15T16:42:43.590Z,19.00
2023-02-15T16:46:12.974Z,30.87
2023-02-15T16:49:36.776Z,25.00
2023-02-15T16:53:01.013Z,24.73
2023-02-15T16:56:26.091Z,23.30
2023-02-15T16:59:53.924Z,28.97
2023-02-15T17:03:26.441Z,23.70
2023-02-15T17:07:00.988Z,21.40
2023-02-15T17:10:30.603Z,23.70
2023-02-15T17:14:15.217Z,25.17
2023-02-15T17:17:40.238Z,24.60
2023-02-15T17:21:12.324Z,25.57
2023-02-15T17:24:41.099Z,34.40
2023-02-15T17:28:05.270Z,21.27
2023-02-15T17:31:33.077Z,24.93
2023-02-15T17:35:09.149Z,19.70
2023-02-15T17:38:33.316Z,25.40
2023-02-15T17:41:56.892Z,22.57
2023-02-15T17:45:21.187Z,18.73
2023-02-15T17:48:44.813Z,24.47
2023-02-15T17:52:13.759Z,20.37
2023-02-15T17:55:39.401Z,28.63
2023-02-15T17:59:07.358Z,24.27
2023-02-15T18:02:53.714Z,23.07
2023-02-15T18:06:35.284Z,23.90
2023-02-15T18:10:17.644Z,28.63
2023-02-15T18:13:41.255Z,19.40
2023-02-15T18:17:06.386Z,18.87
2023-02-15T18:20:34.143Z,24.03
2023-02-15T18:23:57.976Z,22.50
2023-02-15T18:27:22.940Z,23.87
2023-02-15T18:30:47.177Z,23.03
2023-02-15T18:34:23.013Z,23.10
2023-02-15T18:37:47.466Z,25.17
2023-02-15T18:41:17.256Z,21.20
2023-02-15T18:44:44.434Z,26.60
2023-02-15T18:48:09.829Z,22.10
2023-02-15T18:51:39.836Z,22.73
2023-02-15T18:55:07.869Z,24.30
2023-02-15T18:58:31.505Z,21.43
2023-02-15T19:02:00.210Z,21.17
2023-02-15T19:05:24.923Z,17.70
2023-02-15T19:08:50.661Z,20.73
2023-02-15T19:12:14.830Z,19.67
2023-02-15T19:15:38.351Z,23.97
2023-02-15T19:19:04.047Z,25.07
2023-02-15T19:22:30.803Z,26.30
2023-02-15T19:25:55.306Z,23.80
2023-02-15T19:29:25.783Z,25.30
2023-02-15T19:32:53.200Z,21.53
2023-02-15T19:36:23.977Z,20.33
2023-02-15T19:39:49.989Z,26.20
2023-02-15T19:43:26.033Z,24.67
2023-02-15T19:46:58.927Z,25.63
2023-02-15T19:50:28.238Z,25.20
2023-02-15T19:53:53.384Z,24.47
2023-02-15T19:57:21.540Z,22.63
2023-02-15T20:00:47.336Z,21.83
2023-02-15T20:04:13.761Z,24.67
2023-02-15T20:07:38.617Z,24.57
2023-02-15T20:11:11.972Z,24.40
2023-02-15T20:14:37.741Z,24.40
2023-02-15T20:18:13.735Z,23.77
2023-02-15T20:21:39.884Z,28.67
2023-02-15T20:25:06.281Z,29.93
2023-02-15T20:28:33.012Z,25.70
2023-02-15T20:32:02.567Z,29.60
2023-02-15T20:35:30.047Z,26.90
2023-02-15T20:38:57.511Z,34.37
2023-02-15T20:42:23.512Z,36.67
2023-02-15T20:45:50.884Z,34.97
2023-02-15T20:49:19.107Z,27.43
2023-02-15T20:52:44.065Z,27.33
2023-02-15T20:56:15.189Z,23.47
2023-02-15T20:59:41.769Z,27.00
2023-02-15T21:03:14.974Z,32.50
2023-02-15T21:06:48.180Z,29.13
2023-02-15T21:10:17.858Z,29.30
2023-02-15T21:13:43.456Z,29.23
2023-02-15T21:17:11.034Z,27.80
2023-02-15T21:20:45.878Z,27.33
2023-02-15T21:24:20.536Z,30.50
2023-02-15T21:27:48.633Z,28.33
2023-02-15T21:31:18.299Z,23.13
2023-02-15T21:34:45.721Z,30.67
2023-02-15T21:38:15.879Z,25.50
2023-02-15T21:42:04.939Z,31.03
2023-02-15T21:45:46.901Z,33.13
2023-02-15T21:49:11.665Z,32.60
2023-02-15T21:52:35.684Z,36.43
2023-02-15T21:56:03.431Z,31.37
2023-02-15T21:59:30.723Z,31.90
2023-02-15T22:03:01.466Z,28.10
2023-02-15T22:06:31.115Z,34.03
2023-02-15T22:10:06.540Z,31.83
2023-02-15T22:13:39.841Z,28.87
2023-02-15T22:17:09.740Z,36.33
2023-02-15T22:20:37.348Z,33.43
2023-02-15T22:24:04.449Z,25.10
2023-02-15T22:27:32.159Z,28.77
2023-02-15T22:31:05.572Z,24.10
2023-02-15T22:34:40.697Z,31.70
2023-02-15T22:38:15.672Z,26.23
2023-02-15T22:41:41.493Z,28.87
2023-02-15T22:45:08.532Z,26.40
2023-02-15T22:48:37.710Z,26.07
2023-02-15T22:52:13.958Z,28.70
2023-02-15T22:55:45.873Z,30.87
2023-02-15T22:59:16.896Z,27.23
2023-02-15T23:02:41.896Z,29.70
2023-02-15T23:06:10.792Z,25.03
2023-02-15T23:09:34.481Z,29.40
2023-02-15T23:13:19.889Z,28.87
2023-02-15T23:16:45.893Z,32.53
2023-02-15T23:20:15.022Z,32.60
2023-02-15T23:23:41.787Z,30.07
2023-02-15T23:27:19.936Z,31.23
2023-02-15T23:30:43.754Z,28.80
2023-02-15T23:34:15.763Z,30.70
2023-02-15T23:37:39.397Z,34.73
2023-02-15T23:41:22.868Z,27.90
2023-02-15T23:44:47.418Z,31.53
2023-02-15T23:48:33.484Z,29.90
2023-02-15T23:51:58.707Z,31.20
2023-02-15T23:55:24.631Z,35.70
2023-02-15T23:58:52.359Z,30.87
